createdAt,value
2022-08-19T00:00:16.974Z,25.93
2022-08-19T00:02:47.844Z,25.93
2022-08-19T00:05:20.394Z,25.92
2022-08-19T00:07:49.651Z,25.91
2022-08-19T00:10:18.852Z,25.91
2022-08-19T00:12:47.425Z,25.90
2022-08-19T00:15:20.993Z,25.90
2022-08-19T00:17:50.138Z,25.88
2022-08-19T00:20:21.525Z,25.87
2022-08-19T00:22:50.326Z,25.82
2022-08-19T00:25:19.339Z,25.79
2022-08-19T00:28:00.035Z,25.73
2022-08-19T00:30:30.206Z,25.73
2022-08-19T00:32:58.856Z,25.74
2022-08-19T00:35:28.212Z,25.73
2022-08-19T00:37:57.478Z,25.64
2022-08-19T00:40:26.205Z,25.64
2022-08-19T00:42:55.303Z,25.64
2022-08-19T00:45:26.519Z,25.59
2022-08-19T00:47:56.335Z,25.59
2022-08-19T00:50:25.513Z,25.50
2022-08-19T00:52:54.756Z,25.53
2022-08-19T00:55:29.124Z,25.49
2022-08-19T00:58:02.397Z,25.44
2022-08-19T01:00:31.916Z,25.38
2022-08-19T01:03:01.874Z,25.35
2022-08-19T01:05:31.828Z,25.36
2022-08-19T01:08:03.000Z,25.39
2022-08-19T01:10:36.901Z,25.39
2022-08-19T01:13:06.454Z,25.40
2022-08-19T01:15:40.718Z,25.40
2022-08-19T01:18:13.209Z,25.40
2022-08-19T01:20:43.220Z,25.39
2022-08-19T01:23:14.140Z,25.39
2022-08-19T01:25:47.660Z,25.37
2022-08-19T01:28:34.138Z,25.31
2022-08-19T01:31:26.447Z,25.31
2022-08-19T01:33:58.268Z,25.23
2022-08-19T01:36:30.926Z,25.23
2022-08-19T01:39:01.527Z,25.22
2022-08-19T01:41:30.217Z,25.16
2022-08-19T01:44:03.238Z,25.16
2022-08-19T01:46:46.763Z,25.14
2022-08-19T01:49:15.300Z,25.08
2022-08-19T01:51:43.776Z,25.08
2022-08-19T01:54:27.111Z,25.07
2022-08-19T01:57:00.309Z,25.06
2022-08-19T01:59:29.026Z,25.04
2022-08-19T02:01:57.508Z,25.04
2022-08-19T02:04:26.620Z,25.01
2022-08-19T02:06:55.084Z,24.99
2022-08-19T02:09:24.968Z,24.98
2022-08-19T02:11:54.504Z,24.95
2022-08-19T02:14:23.080Z,24.83
2022-08-19T02:16:51.488Z,24.83
2022-08-19T02:19:19.916Z,24.75
2022-08-19T02:21:48.429Z,24.67
2022-08-19T02:24:16.818Z,24.61
2022-08-19T02:26:46.688Z,24.63
2022-08-19T02:29:15.150Z,24.60
2022-08-19T02:31:43.631Z,24.63
2022-08-19T02:34:12.082Z,24.60
2022-08-19T02:36:42.306Z,24.64
2022-08-19T02:39:10.543Z,24.65
2022-08-19T02:41:39.261Z,24.66
2022-08-19T02:44:28.584Z,24.66
2022-08-19T02:46:57.672Z,24.65
2022-08-19T02:49:26.101Z,24.65
2022-08-19T02:51:55.493Z,24.65
2022-08-19T02:54:23.964Z,24.65
2022-08-19T02:56:52.521Z,24.64
2022-08-19T02:59:22.932Z,24.63
2022-08-19T03:01:51.784Z,24.62
2022-08-19T03:04:20.514Z,24.59
2022-08-19T03:06:49.609Z,24.58
2022-08-19T03:09:20.703Z,24.56
2022-08-19T03:11:49.886Z,24.53
2022-08-19T03:14:22.727Z,24.52
2022-08-19T03:16:53.682Z,24.51
2022-08-19T03:19:23.465Z,24.45
2022-08-19T03:21:52.759Z,24.37
2022-08-19T03:24:21.826Z,24.37
2022-08-19T03:26:52.342Z,24.34
2022-08-19T03:29:30.352Z,24.29
2022-08-19T03:32:01.695Z,24.31
2022-08-19T03:34:32.935Z,24.32
2022-08-19T03:37:07.831Z,24.33
2022-08-19T03:39:38.218Z,24.33
2022-08-19T03:42:47.753Z,24.33
2022-08-19T03:44:57.038Z,24.34
2022-08-19T03:47:25.459Z,24.33
2022-08-19T03:49:53.863Z,24.34
2022-08-19T03:52:22.300Z,24.35
2022-08-19T03:54:50.731Z,24.35
2022-08-19T03:57:19.267Z,24.35
2022-08-19T03:59:47.645Z,24.35
2022-08-19T04:02:17.773Z,24.36
2022-08-19T04:04:46.585Z,24.34
2022-08-19T04:07:17.486Z,24.28
2022-08-19T04:09:46.393Z,24.26
2022-08-19T04:12:16.030Z,24.27
2022-08-19T04:14:44.467Z,24.28
2022-08-19T04:17:14.061Z,24.28
2022-08-19T04:19:44.107Z,24.31
2022-08-19T04:22:13.706Z,24.32
2022-08-19T04:24:42.231Z,24.33
2022-08-19T04:27:10.809Z,24.32
2022-08-19T04:29:40.628Z,24.34
2022-08-19T04:32:09.877Z,24.36
2022-08-19T04:35:02.391Z,24.33
2022-08-19T04:37:35.563Z,24.32
2022-08-19T04:40:24.331Z,24.29
2022-08-19T04:42:53.076Z,24.31
2022-08-19T04:45:22.838Z,24.35
2022-08-19T04:47:58.669Z,24.38
2022-08-19T04:50:42.980Z,24.41
2022-08-19T04:53:12.966Z,24.38
2022-08-19T04:55:43.553Z,24.40
2022-08-19T04:58:12.044Z,24.42
2022-08-19T05:00:41.674Z,24.44
2022-08-19T05:03:10.444Z,24.48
2022-08-19T05:05:44.842Z,24.49
2022-08-19T05:08:31.065Z,24.49
2022-08-19T05:11:00.548Z,24.54
2022-08-19T05:13:29.251Z,24.52
2022-08-19T05:15:58.857Z,24.54
2022-08-19T05:18:45.766Z,24.60
2022-08-19T05:21:34.837Z,24.60
2022-08-19T05:24:09.585Z,24.62
2022-08-19T05:26:39.130Z,24.64
2022-08-19T05:29:09.581Z,24.67
2022-08-19T05:31:39.585Z,24.68
2022-08-19T05:34:18.445Z,24.57
2022-08-19T05:36:48.813Z,24.60
2022-08-19T05:39:22.839Z,24.65
2022-08-19T05:41:54.482Z,24.67
2022-08-19T05:44:23.641Z,24.72
2022-08-19T05:46:53.988Z,24.77
2022-08-19T05:49:24.913Z,24.81
2022-08-19T05:51:54.029Z,24.85
2022-08-19T05:54:25.154Z,24.86
2022-08-19T05:56:54.665Z,24.91
2022-08-19T05:59:24.886Z,24.96
2022-08-19T06:01:56.125Z,25.00
2022-08-19T06:04:26.476Z,25.05
2022-08-19T06:06:56.134Z,25.10
2022-08-19T06:09:26.010Z,25.10
2022-08-19T06:11:56.287Z,25.16
2022-08-19T06:14:30.198Z,25.20
2022-08-19T06:17:04.937Z,25.23
2022-08-19T06:19:41.082Z,25.30
2022-08-19T06:22:10.899Z,25.32
2022-08-19T06:24:40.874Z,25.38
2022-08-19T06:27:09.391Z,25.43
2022-08-19T06:29:38.061Z,25.46
2022-08-19T06:32:06.862Z,25.48
2022-08-19T06:34:36.796Z,25.50
2022-08-19T06:37:06.792Z,25.50
2022-08-19T06:39:39.284Z,25.55
2022-08-19T06:42:12.535Z,25.56
2022-08-19T06:44:43.845Z,25.56
2022-08-19T06:47:23.498Z,25.59
2022-08-19T06:50:02.787Z,25.58
2022-08-19T06:52:36.742Z,25.61
2022-08-19T06:55:07.906Z,25.60
2022-08-19T06:57:37.880Z,25.61
2022-08-19T07:00:13.028Z,25.63
2022-08-19T07:02:44.711Z,25.61
2022-08-19T07:05:17.104Z,25.63
2022-08-19T07:07:45.583Z,25.66
2022-08-19T07:10:16.442Z,25.67
2022-08-19T07:12:48.727Z,25.67
2022-08-19T07:15:17.348Z,25.71
2022-08-19T07:17:52.540Z,25.77
2022-08-19T07:20:21.779Z,25.85
2022-08-19T07:22:56.859Z,25.91
2022-08-19T07:25:32.352Z,25.94
2022-08-19T07:28:03.037Z,26.04
2022-08-19T07:30:31.999Z,26.01
2022-08-19T07:33:03.705Z,26.07
2022-08-19T07:35:34.648Z,26.14
2022-08-19T07:38:04.899Z,26.22
2022-08-19T07:40:33.601Z,26.30
2022-08-19T07:43:03.570Z,26.37
2022-08-19T07:45:33.354Z,26.40
2022-08-19T07:48:02.149Z,26.48
2022-08-19T07:50:30.677Z,26.44
2022-08-19T07:52:59.232Z,26.47
2022-08-19T07:55:41.061Z,26.58
2022-08-19T07:58:15.604Z,26.65
2022-08-19T08:00:44.796Z,26.72
2022-08-19T08:03:13.769Z,26.80
2022-08-19T08:06:00.229Z,26.89
2022-08-19T08:08:48.359Z,26.94
2022-08-19T08:11:20.787Z,27.08
2022-08-19T08:14:00.823Z,27.16
2022-08-19T08:16:35.727Z,27.20
2022-08-19T08:19:20.231Z,27.27
2022-08-19T08:21:57.689Z,27.29
2022-08-19T08:24:28.722Z,27.27
2022-08-19T08:26:58.013Z,27.35
2022-08-19T08:29:34.489Z,27.39
2022-08-19T08:32:13.963Z,27.37
2022-08-19T08:34:43.033Z,27.40
2022-08-19T08:37:11.588Z,27.48
2022-08-19T08:39:40.177Z,27.52
2022-08-19T08:42:18.047Z,27.53
2022-08-19T08:47:30.770Z,27.50
2022-08-19T08:50:05.202Z,27.50
2022-08-19T08:52:39.371Z,27.53
2022-08-19T08:55:12.514Z,27.68
2022-08-19T08:57:46.706Z,27.83
2022-08-19T09:00:20.958Z,27.99
2022-08-19T09:02:50.559Z,28.17
2022-08-19T09:05:22.707Z,28.36
2022-08-19T09:08:01.832Z,28.48
2022-08-19T09:10:34.056Z,28.74
2022-08-19T09:13:12.208Z,28.91
2022-08-19T09:15:47.461Z,29.08
2022-08-19T09:18:19.509Z,29.13
2022-08-19T09:20:49.509Z,29.18
2022-08-19T09:23:18.304Z,29.19
2022-08-19T09:25:55.308Z,29.28
2022-08-19T09:28:27.283Z,29.50
2022-08-19T09:30:57.272Z,29.71
2022-08-19T09:33:25.878Z,29.85
2022-08-19T09:36:08.425Z,29.96
2022-08-19T09:38:43.641Z,30.03
2022-08-19T09:41:14.927Z,30.12
2022-08-19T09:43:47.826Z,30.30
2022-08-19T09:46:19.283Z,30.53
2022-08-19T09:48:53.295Z,30.70
2022-08-19T09:51:24.052Z,30.77
2022-08-19T09:53:55.078Z,30.78
2022-08-19T09:56:24.682Z,30.83
2022-08-19T09:58:53.562Z,30.86
2022-08-19T10:01:26.844Z,30.77
2022-08-19T10:03:58.850Z,30.80
2022-08-19T10:06:46.684Z,30.83
2022-08-19T10:09:17.346Z,30.76
2022-08-19T10:11:55.227Z,30.76
2022-08-19T10:14:24.799Z,30.71
2022-08-19T10:16:54.702Z,30.81
2022-08-19T10:19:25.705Z,31.03
2022-08-19T10:21:58.574Z,31.12
2022-08-19T10:24:29.366Z,31.30
2022-08-19T10:26:59.734Z,31.54
2022-08-19T10:29:32.535Z,31.58
2022-08-19T10:32:04.647Z,31.90
2022-08-19T10:34:48.354Z,32.33
2022-08-19T10:37:23.743Z,32.81
2022-08-19T10:39:57.439Z,33.40
2022-08-19T10:42:25.890Z,33.92
2022-08-19T10:44:54.404Z,34.44
2022-08-19T10:47:26.018Z,34.68
2022-08-19T10:50:13.779Z,34.88
2022-08-19T10:52:49.457Z,34.75
2022-08-19T10:55:39.514Z,35.12
2022-08-19T10:58:13.397Z,35.04
2022-08-19T11:00:43.394Z,35.05
2022-08-19T11:03:13.345Z,34.92
2022-08-19T11:05:42.453Z,34.73
2022-08-19T11:08:22.121Z,34.65
2022-08-19T11:10:59.149Z,34.53
2022-08-19T11:13:27.764Z,34.43
2022-08-19T11:16:06.562Z,34.40
2022-08-19T11:18:38.852Z,33.98
2022-08-19T11:21:09.183Z,33.95
2022-08-19T11:23:37.739Z,33.88
2022-08-19T11:26:06.426Z,33.68
2022-08-19T11:28:35.074Z,33.62
2022-08-19T11:31:04.427Z,33.44
2022-08-19T11:33:33.835Z,32.99
2022-08-19T11:36:03.646Z,32.72
2022-08-19T11:38:32.206Z,32.62
2022-08-19T11:41:02.230Z,32.47
2022-08-19T11:43:36.795Z,32.40
2022-08-19T11:46:08.974Z,32.28
2022-08-19T11:48:37.945Z,32.14
2022-08-19T11:51:10.874Z,32.01
2022-08-19T11:53:40.448Z,31.83
2022-08-19T11:56:10.762Z,31.55
2022-08-19T11:58:39.235Z,31.55
2022-08-19T12:01:09.229Z,31.46
2022-08-19T12:03:37.831Z,31.37
2022-08-19T12:06:09.567Z,31.30
2022-08-19T12:08:38.052Z,31.24
2022-08-19T12:11:08.842Z,31.12
2022-08-19T12:13:38.030Z,31.08
2022-08-19T12:16:10.737Z,31.05
2022-08-19T12:18:39.290Z,30.95
2022-08-19T12:21:09.227Z,30.76
2022-08-19T12:23:38.481Z,30.77
2022-08-19T12:26:07.217Z,30.76
2022-08-19T12:28:35.777Z,30.73
2022-08-19T12:31:04.321Z,30.77
2022-08-19T12:33:33.163Z,30.68
2022-08-19T12:36:04.861Z,30.67
2022-08-19T12:38:35.368Z,30.62
2022-08-19T12:41:07.412Z,30.40
2022-08-19T12:43:36.865Z,30.16
2022-08-19T12:46:05.756Z,30.17
2022-08-19T12:48:35.172Z,30.19
2022-08-19T12:51:08.299Z,30.01
2022-08-19T12:53:39.229Z,29.96
2022-08-19T12:56:11.530Z,29.85
2022-08-19T12:58:48.889Z,29.69
2022-08-19T13:01:23.163Z,29.68
2022-08-19T13:03:53.254Z,29.66
2022-08-19T13:06:22.524Z,29.65
2022-08-19T13:08:56.501Z,29.69
2022-08-19T13:11:28.206Z,29.61
2022-08-19T13:13:57.261Z,29.62
2022-08-19T13:16:28.577Z,29.41
2022-08-19T13:18:58.571Z,29.31
2022-08-19T13:21:31.007Z,29.12
2022-08-19T13:24:01.066Z,29.15
2022-08-19T13:26:29.546Z,29.05
2022-08-19T13:29:15.321Z,29.04
2022-08-19T13:32:01.976Z,28.56
2022-08-19T13:34:35.046Z,28.56
2022-08-19T13:37:05.148Z,28.58
2022-08-19T13:39:36.309Z,28.71
2022-08-19T13:42:05.870Z,28.69
2022-08-19T13:44:34.939Z,28.69
2022-08-19T13:47:06.686Z,28.78
2022-08-19T13:49:36.968Z,28.83
2022-08-19T13:52:06.704Z,28.85
2022-08-19T13:54:36.636Z,28.84
2022-08-19T13:57:05.704Z,28.63
2022-08-19T13:59:34.622Z,28.48
2022-08-19T14:02:03.636Z,28.26
2022-08-19T14:04:32.160Z,27.97
2022-08-19T14:07:00.616Z,27.89
2022-08-19T14:09:29.107Z,28.01
2022-08-19T14:11:58.955Z,28.03
2022-08-19T14:14:27.346Z,27.99
2022-08-19T14:16:55.812Z,27.98
2022-08-19T14:19:24.247Z,27.83
2022-08-19T14:21:52.774Z,27.76
2022-08-19T14:24:21.216Z,27.70
2022-08-19T14:26:49.918Z,27.54
2022-08-19T14:29:19.816Z,27.50
2022-08-19T14:31:48.254Z,27.40
2022-08-19T14:34:16.733Z,27.37
2022-08-19T14:36:46.225Z,27.37
2022-08-19T14:39:14.720Z,27.16
2022-08-19T14:41:43.838Z,27.17
2022-08-19T14:44:13.583Z,27.07
2022-08-19T14:46:49.643Z,27.03
2022-08-19T14:49:19.086Z,26.95
2022-08-19T14:51:48.763Z,26.87
2022-08-19T14:54:17.212Z,26.89
2022-08-19T14:56:45.890Z,26.85
2022-08-19T14:59:14.632Z,26.83
2022-08-19T15:01:44.830Z,26.73
2022-08-19T15:04:13.329Z,26.80
2022-08-19T15:06:43.354Z,26.81
2022-08-19T15:09:12.668Z,26.88
2022-08-19T15:11:41.241Z,26.88
2022-08-19T15:14:10.266Z,26.90
2022-08-19T15:16:40.577Z,26.80
2022-08-19T15:19:11.360Z,26.79
2022-08-19T15:21:39.929Z,26.84
2022-08-19T15:24:08.712Z,26.82
2022-08-19T15:26:37.303Z,26.85
2022-08-19T15:29:06.255Z,26.95
2022-08-19T15:31:38.222Z,26.97
2022-08-19T15:34:08.053Z,27.06
2022-08-19T15:36:38.614Z,27.11
2022-08-19T15:39:10.135Z,27.17
2022-08-19T15:41:41.252Z,27.16
2022-08-19T15:44:13.339Z,27.16
2022-08-19T15:46:45.320Z,27.17
2022-08-19T15:49:16.277Z,27.04
2022-08-19T15:51:49.138Z,27.07
2022-08-19T15:54:22.739Z,27.06
2022-08-19T15:57:09.252Z,27.09
2022-08-19T16:00:02.431Z,27.10
2022-08-19T16:02:53.532Z,26.97
2022-08-19T16:05:44.190Z,27.00
2022-08-19T16:08:15.644Z,27.06
2022-08-19T16:10:44.242Z,27.06
2022-08-19T16:13:12.774Z,26.96
2022-08-19T16:15:42.118Z,26.90
2022-08-19T17:42:12.506Z,26.15
2022-08-19T17:44:41.015Z,26.14
2022-08-19T17:47:09.500Z,26.16
2022-08-19T17:49:38.192Z,26.13
2022-08-19T17:52:09.941Z,26.14
2022-08-19T17:54:38.927Z,26.13
2022-08-19T17:57:07.420Z,26.15
2022-08-19T17:59:37.703Z,26.19
2022-08-19T18:02:08.076Z,26.15
2022-08-19T18:04:39.009Z,26.17
2022-08-19T18:07:07.543Z,26.15
2022-08-19T18:09:41.807Z,26.10
2022-08-19T18:12:12.561Z,26.15
2022-08-19T18:14:43.371Z,26.15
2022-08-19T18:17:13.620Z,26.13
2022-08-19T18:19:44.195Z,26.07
2022-08-19T18:22:14.924Z,25.99
2022-08-19T18:24:45.961Z,26.06
2022-08-19T18:27:15.046Z,26.07
2022-08-19T18:29:45.361Z,26.03
2022-08-19T18:32:14.704Z,26.01
2022-08-19T18:34:44.585Z,25.91
2022-08-19T18:37:13.979Z,25.96
2022-08-19T18:39:59.980Z,25.91
2022-08-19T18:42:46.010Z,25.83
2022-08-19T18:45:33.317Z,25.81
2022-08-19T18:48:26.852Z,25.88
2022-08-19T18:50:58.508Z,25.90
2022-08-19T18:53:29.038Z,25.75
2022-08-19T18:55:57.898Z,25.71
2022-08-19T18:58:28.477Z,25.74
2022-08-19T19:00:58.407Z,25.62
2022-08-19T19:03:27.096Z,25.64
2022-08-19T19:05:55.786Z,25.63
2022-08-19T19:08:27.094Z,25.58
2022-08-19T19:10:59.024Z,25.54
2022-08-19T19:13:29.265Z,25.51
2022-08-19T19:16:01.233Z,25.49
2022-08-19T19:18:30.206Z,25.44
2022-08-19T19:20:59.195Z,25.39
2022-08-19T19:23:28.616Z,25.39
2022-08-19T19:25:57.026Z,25.41
2022-08-19T19:28:28.396Z,25.37
2022-08-19T19:30:59.351Z,25.25
2022-08-19T19:33:29.182Z,25.28
2022-08-19T19:35:57.709Z,25.31
2022-08-19T19:38:26.141Z,25.30
2022-08-19T19:40:54.670Z,25.24
2022-08-19T19:43:23.298Z,25.17
2022-08-19T19:45:52.090Z,25.16
2022-08-19T19:48:22.019Z,25.14
2022-08-19T19:50:53.941Z,25.15
2022-08-19T19:53:26.359Z,25.09
2022-08-19T19:55:58.758Z,25.02
2022-08-19T19:58:28.964Z,25.04
2022-08-19T20:00:59.018Z,25.00
2022-08-19T20:03:30.028Z,24.99
2022-08-19T20:05:59.632Z,24.97
2022-08-19T20:08:46.548Z,25.00
2022-08-19T20:11:26.225Z,24.96
2022-08-19T20:13:54.675Z,24.89
2022-08-19T20:16:25.449Z,24.88
2022-08-19T20:18:55.865Z,24.91
2022-08-19T20:21:28.500Z,24.87
2022-08-19T20:24:08.594Z,24.76
2022-08-19T20:26:38.293Z,24.72
2022-08-19T20:29:13.522Z,24.73
2022-08-19T20:31:57.772Z,24.69
2022-08-19T20:34:29.695Z,24.60
2022-08-19T20:36:58.148Z,24.59
2022-08-19T20:39:26.597Z,24.55
2022-08-19T20:41:56.529Z,24.55
2022-08-19T20:44:26.019Z,24.57
2022-08-19T20:46:57.541Z,24.55
2022-08-19T20:49:29.587Z,24.52
2022-08-19T20:51:58.566Z,24.49
2022-08-19T20:54:27.466Z,24.43
2022-08-19T20:56:56.081Z,24.36
2022-08-19T20:59:25.966Z,24.36
2022-08-19T21:01:54.911Z,24.32
2022-08-19T21:04:23.704Z,24.27
2022-08-19T21:06:54.816Z,24.26
2022-08-19T21:09:23.488Z,24.27
2022-08-19T21:11:51.950Z,24.23
2022-08-19T21:14:20.803Z,24.17
2022-08-19T21:16:49.459Z,24.17
2022-08-19T21:19:22.038Z,24.14
2022-08-19T21:21:54.067Z,24.09
2022-08-19T21:24:26.300Z,24.10
2022-08-19T21:27:00.165Z,24.14
2022-08-19T21:29:28.609Z,24.16
2022-08-19T21:31:57.067Z,24.11
2022-08-19T21:34:25.554Z,24.07
2022-08-19T21:36:55.399Z,24.07
2022-08-19T21:39:24.055Z,24.05
2022-08-19T21:41:52.629Z,24.05
2022-08-19T21:44:21.086Z,24.02
2022-08-19T21:46:50.546Z,23.99
2022-08-19T21:49:19.811Z,24.00
2022-08-19T21:51:48.300Z,23.96
2022-08-19T21:54:18.327Z,23.95
2022-08-19T21:56:47.200Z,23.94
2022-08-19T21:59:17.082Z,23.95
2022-08-19T22:01:49.676Z,23.87
2022-08-19T22:04:22.485Z,23.86
2022-08-19T22:06:51.102Z,23.84
2022-08-19T22:09:20.991Z,23.86
2022-08-19T22:11:49.615Z,23.85
2022-08-19T22:14:18.054Z,23.75
2022-08-19T22:16:47.441Z,23.82
2022-08-19T22:19:15.861Z,23.77
2022-08-19T22:21:44.321Z,23.76
2022-08-19T22:24:12.680Z,23.77
2022-08-19T22:26:42.576Z,23.74
2022-08-19T22:29:11.076Z,23.70
2022-08-19T22:31:44.450Z,23.75
2022-08-19T22:34:12.882Z,23.66
2022-08-19T22:36:41.566Z,23.61
2022-08-19T22:39:10.000Z,23.63
2022-08-19T22:41:40.853Z,23.60
2022-08-19T22:44:11.632Z,23.56
2022-08-19T22:46:40.109Z,23.55
2022-08-19T22:49:08.672Z,23.57
2022-08-19T22:51:54.763Z,23.57
2022-08-19T22:54:23.329Z,23.56
2022-08-19T22:56:52.798Z,23.51
2022-08-19T22:59:22.683Z,23.50
2022-08-19T23:01:51.112Z,23.51
2022-08-19T23:04:19.657Z,23.42
2022-08-19T23:06:48.184Z,23.47
2022-08-19T23:09:17.462Z,23.46
2022-08-19T23:11:46.132Z,23.46
2022-08-19T23:14:16.937Z,23.46
2022-08-19T23:16:51.024Z,23.42
2022-08-19T23:19:21.310Z,23.39
2022-08-19T23:21:50.242Z,23.42
2022-08-19T23:24:18.744Z,23.36
2022-08-19T23:27:01.072Z,23.33
2022-08-19T23:29:47.303Z,23.32
2022-08-19T23:32:19.062Z,23.27
2022-08-19T23:34:48.448Z,23.25
2022-08-19T23:37:16.935Z,23.23
2022-08-19T23:39:45.607Z,23.24
2022-08-19T23:42:14.306Z,23.20
2022-08-19T23:44:52.106Z,23.14
2022-08-19T23:47:23.671Z,23.13
2022-08-19T23:49:52.096Z,23.11
2022-08-19T23:52:21.045Z,23.07
2022-08-19T23:54:49.568Z,23.02
2022-08-19T23:57:17.995Z,22.99
2022-08-19T23:59:46.497Z,22.94
